Marco Polo — C6JZ7 — position and weather

sailwx.info

Track history (hours):
 
Tides and Currents Weather Stations Pressure Air Temp Water Temp Dewpoint Dewpoint Depression Visibility Wind Speed Wind Dir Waves Ship Positions

Marco Polo

Operator: Orient Lines

Last reported at 2018-Jun-18 18:59 UTC. Time now 2018-Jun-19 20:03 UTC.
Position N 57°39' W 001°41'.

Type: Ship. MMSI: 308691456.

Date/timePositionNaut miles runAvg speedWind from/ knotsBaromVisibWave heightAir tempDewpointWater temp
2018-Jun-18 18:59N 57°39' W 001°41'5 9.7
2018-Jun-18 18:30N 57°35' W 001°39'4 8.9
2018-Jun-18 18:01N 57°30' W 001°37'4 8.6
2018-Jun-18 17:31N 57°26' W 001°34'6 8.6
2018-Jun-18 16:51N 57°21' W 001°32'4 9.1
2018-Jun-18 16:24N 57°17' W 001°30'4 9.0
2018-Jun-18 16:00N 57°13' W 001°28'4 8.9
2018-Jun-18 15:31N 57°09' W 001°25'14612.4
2018-Jun-18 03:49N 54°49' W 000°12'413.8
2018-Jun-18 03:30N 54°45' W 000°10'714.1
2018-Jun-18 03:00N 54°39' W 000°07'714.7
2018-Jun-18 02:30N 54°32' W 000°03'715.0
2018-Jun-18 02:00N 54°24' E 000°00'815.2
2018-Jun-18 01:30N 54°17' E 000°04'815.7
2018-Jun-18 01:00N 54°10' E 000°08'815.6
2018-Jun-18 00:30N 54°02' E 000°12'815.5
2018-Jun-18 00:00N 53°55' E 000°17'1613.4
2018-Jun-17 22:48N 53°39' E 000°23'515.2
2018-Jun-17 22:28N 53°35' E 000°18'911.2
2018-Jun-17 21:42N 53°35' E 000°04'314.1
2018-Jun-17 21:30N 53°35' W 000°01'612.4
2018-Jun-17 21:00N 53°38' W 000°11'510.3
2018-Jun-17 20:30N 53°43' W 000°14'2 4.4
2018-Jun-17 20:00N 53°44' W 000°16'0 0.2
2018-Jun-17 19:30N 53°45' W 000°16'0 0.4
2018-Jun-17 19:00N 53°45' W 000°16'0 0.0
2018-Jun-17 18:27N 53°45' W 000°16'0 0.0
2018-Jun-17 18:00N 53°45' W 000°16'0 0.0
2018-Jun-17 17:30N 53°45' W 000°16'0 0.0
2018-Jun-17 17:00N 53°45' W 000°16'0 0.0
2018-Jun-17 16:30N 53°45' W 000°16'0 0.0
2018-Jun-17 16:00N 53°45' W 000°16'0 0.0
2018-Jun-17 15:27N 53°45' W 000°16'0 0.0
2018-Jun-17 15:00N 53°45' W 000°16'0 0.0
2018-Jun-17 14:30N 53°45' W 000°16'0 0.0
2018-Jun-17 14:00N 53°45' W 000°16'0 0.0
2018-Jun-17 13:30N 53°45' W 000°16'0 0.0
2018-Jun-17 13:00N 53°45' W 000°16'0 0.0
2018-Jun-17 12:30N 53°45' W 000°16'0 0.0
2018-Jun-17 12:00N 53°45' W 000°16'0 0.0
2018-Jun-17 11:30N 53°45' W 000°16'0 0.0
2018-Jun-17 11:00N 53°45' W 000°16'0 0.0
2018-Jun-17 10:30N 53°45' W 000°16'0 0.0
2018-Jun-17 10:00N 53°45' W 000°16'0 0.0
2018-Jun-17 09:30N 53°45' W 000°16'0 0.0
2018-Jun-17 09:00N 53°45' W 000°16'0 0.0
2018-Jun-17 08:30N 53°45' W 000°16'0 0.2
2018-Jun-17 08:00N 53°45' W 000°16'0 0.4
2018-Jun-17 07:31N 53°44' W 000°16'1 2.7
2018-Jun-17 07:00N 53°43' W 000°15'5 9.4
2018-Jun-17 06:30N 53°39' W 000°12'510.5
2018-Jun-17 06:00N 53°37' W 000°03'1012.5
2018-Jun-17 05:13N 53°33' E 000°11'3512.7
2018-Jun-17 02:27N 53°23' E 001°08'512.1
2018-Jun-17 02:00N 53°18' E 001°12'611.9
2018-Jun-17 01:30N 53°13' E 001°17'611.1
2018-Jun-17 01:00N 53°08' E 001°23'510.5
2018-Jun-17 00:31N 53°04' E 001°27'5 9.7
2018-Jun-17 00:01N 52°60' E 001°31'4 8.8
2018-Jun-16 23:30N 52°56' E 001°36'4 8.1
2018-Jun-16 23:01N 52°54' E 001°41'4 7.6
2018-Jun-16 22:30N 52°51' E 001°46'4 8.0
2018-Jun-16 22:01N 52°49' E 001°51'4 7.6
2018-Jun-16 21:30N 52°47' E 001°57'4 7.3
2018-Jun-16 21:00N 52°44' E 001°60'4 7.6
2018-Jun-16 20:30N 52°40' E 002°01'4 7.8
2018-Jun-16 20:00N 52°36' E 002°02'5 9.2
2018-Jun-16 19:30N 52°32' E 002°00'910.3
2018-Jun-16 18:38N 52°23' E 001°57'210.9
2018-Jun-16 18:29N 52°21' E 001°56'611.3
2018-Jun-16 18:00N 52°16' E 001°53'611.4
2018-Jun-16 17:31N 52°11' E 001°50'612.0
2018-Jun-16 17:01N 52°06' E 001°46'612.8
2018-Jun-16 16:31N 52°02' E 001°38'815.0
2018-Jun-16 16:00N 51°56' E 001°29'612.8
2018-Jun-16 15:30N 51°56' E 001°19'2 4.9
2018-Jun-16 15:00N 51°57' E 001°15'0 0.0
2018-Jun-16 14:29N 51°57' E 001°15'0 0.0
2018-Jun-16 13:59N 51°57' E 001°15'0 0.0
2018-Jun-16 13:29N 51°57' E 001°15'0 0.0
2018-Jun-16 12:59N 51°57' E 001°15'0 0.0
2018-Jun-16 12:29N 51°57' E 001°15'0 0.0
2018-Jun-16 11:59N 51°57' E 001°15'0 0.0
2018-Jun-16 11:29N 51°57' E 001°15'0 0.0
2018-Jun-16 10:59N 51°57' E 001°15'0 0.0
2018-Jun-16 10:29N 51°57' E 001°15'0 0.0
2018-Jun-16 09:59N 51°57' E 001°15'0 0.0
2018-Jun-16 09:29N 51°57' E 001°15'0 0.0
2018-Jun-16 08:59N 51°57' E 001°15'0 0.0
2018-Jun-16 08:29N 51°57' E 001°15'1 2.9
2018-Jun-16 08:00N 51°57' E 001°18'5 9.7
2018-Jun-16 07:30N 51°56' E 001°25'5 9.4
2018-Jun-16 07:00N 51°57' E 001°33'5 9.6
2018-Jun-16 06:31N 51°52' E 001°35'713.2
2018-Jun-16 06:01N 51°55' E 001°44'714.6
2018-Jun-16 05:31N 52°01' E 001°51'714.5
2018-Jun-16 05:00N 52°07' E 001°58'714.7
2018-Jun-16 04:30N 52°13' E 002°05'814.5
2018-Jun-16 03:59N 52°19' E 002°12'814.5
2018-Jun-16 03:26N 52°25' E 002°20'714.8
2018-Jun-16 02:57N 52°31' E 002°27'715.3
2018-Jun-16 02:31N 52°37' E 002°34'815.8
2018-Jun-16 02:00N 52°42' E 002°43'816.0
2018-Jun-16 01:30N 52°49' E 002°49'816.8
2018-Jun-16 01:00N 52°56' E 002°57'1117.0
2018-Jun-16 00:20N 53°05' E 003°08'617.2
2018-Jun-16 00:00N 53°10' E 003°14'917.1
2018-Jun-15 23:30N 53°16' E 003°24'917.3
2018-Jun-15 23:01N 53°24' E 003°29'917.1
2018-Jun-15 22:30N 53°32' E 003°33'816.9
2018-Jun-15 22:00N 53°40' E 003°38'1015.8
2018-Jun-15 21:24N 53°47' E 003°50'33814.8
2018-Jun-14 22:31N 57°41' E 011°04'015.5
2018-Jun-14 22:30N 57°41' E 011°05'815.8
2018-Jun-14 21:58N 57°34' E 011°15'716.1
2018-Jun-14 21:30N 57°29' E 011°25'815.6
2018-Jun-14 21:00N 57°22' E 011°31'12414.4
2018-Jun-14 12:21N 55°19' E 011°03'413.1
2018-Jun-14 12:00N 55°15' E 011°06'714.0
2018-Jun-14 11:29N 55°08' E 011°03'715.1
2018-Jun-14 11:01N 55°00' E 011°02'714.7
2018-Jun-14 10:30N 54°55' E 010°54'815.0
2018-Jun-14 10:00N 54°47' E 010°53'713.8
2018-Jun-14 09:31N 54°41' E 010°57'815.7
2018-Jun-14 09:00N 54°37' E 011°09'714.9
2018-Jun-14 08:31N 54°34' E 011°21'815.2
2018-Jun-14 08:01N 54°30' E 011°32'815.6
2018-Jun-14 07:30N 54°27' E 011°45'714.7
2018-Jun-14 07:00N 54°26' E 011°57'4614.1
2018-Jun-14 03:44N 54°52' E 013°03'516.1
2018-Jun-14 03:25N 54°54' E 013°11'2916.3
2018-Jun-14 01:36N 55°04' E 013°60'215.4
2018-Jun-14 01:26N 55°05' E 014°04'715.8
2018-Jun-14 01:00N 55°10' E 014°12'816.3
2018-Jun-14 00:30N 55°16' E 014°21'816.5
2018-Jun-14 00:00N 55°23' E 014°30'816.3
2018-Jun-13 23:30N 55°28' E 014°41'816.2
2018-Jun-13 22:59N 55°33' E 014°53'816.2
2018-Jun-13 22:30N 55°36' E 015°05'816.2
2018-Jun-13 22:00N 55°40' E 015°18'816.2
2018-Jun-13 21:30N 55°44' E 015°31'174 9.9
2018-Jun-13 03:54N 58°01' E 018°48'2814.8
2018-Jun-13 02:00N 58°14' E 019°35'8316.1
2018-Jun-12 20:50N 59°09' E 021°36'717.0
2018-Jun-12 20:24N 59°14' E 021°46'717.1
2018-Jun-12 20:00N 59°18' E 021°57'816.8
2018-Jun-12 19:30N 59°23' E 022°10'816.8
2018-Jun-12 19:00N 59°28' E 022°23'816.3
2018-Jun-12 18:30N 59°31' E 022°39'1216.3
2018-Jun-12 17:47N 59°34' E 023°01'616.2
2018-Jun-12 17:25N 59°35' E 023°13'716.3
2018-Jun-12 17:00N 59°37' E 023°25'816.2
2018-Jun-12 16:30N 59°39' E 023°41'816.7
2018-Jun-12 16:00N 59°43' E 023°56'916.4
2018-Jun-12 15:29N 59°46' E 024°12'817.1
2018-Jun-12 15:01N 59°48' E 024°27'815.2
2018-Jun-12 14:30N 59°52' E 024°40'816.3
2018-Jun-12 14:00N 59°58' E 024°51'714.3
2018-Jun-12 13:31N 60°04' E 024°58'610.9
2018-Jun-12 13:00N 60°10' E 024°59'1 1.0
2018-Jun-12 12:29N 60°10' E 024°58'0 0.0
2018-Jun-12 11:59N 60°10' E 024°58'0 0.0
2018-Jun-12 11:29N 60°10' E 024°58'0 0.0
2018-Jun-12 10:59N 60°10' E 024°58'0 0.0
2018-Jun-12 10:29N 60°10' E 024°58'0 0.0
2018-Jun-12 09:59N 60°10' E 024°58'0 0.0
2018-Jun-12 09:29N 60°10' E 024°58'0 0.0
2018-Jun-12 08:59N 60°10' E 024°58'0 0.0
2018-Jun-12 08:29N 60°10' E 024°58'0 0.0
2018-Jun-12 07:59N 60°10' E 024°58'0 0.0
2018-Jun-12 07:29N 60°10' E 024°58'0 0.0
2018-Jun-12 06:56N 60°10' E 024°58'0 0.0
2018-Jun-12 06:29N 60°10' E 024°58'0 0.0
2018-Jun-12 05:59N 60°10' E 024°58'0 0.0
2018-Jun-12 05:29N 60°10' E 024°58'0 0.0
2018-Jun-12 04:59N 60°10' E 024°58'0 0.2
2018-Jun-12 04:30N 60°10' E 024°59'1 2.6
2018-Jun-12 04:01N 60°09' E 024°60'612.5
2018-Jun-12 03:30N 60°03' E 024°58'612.1
2018-Jun-12 03:01N 59°58' E 025°05'816.3
2018-Jun-12 02:30N 59°57' E 025°21'3716.4
2018-Jun-12 00:14N 60°02' E 026°35'311.1
2018-Jun-12 00:00N 60°01' E 026°40'714.9
2018-Jun-11 23:31N 60°00' E 026°55'714.9
2018-Jun-11 23:00N 60°02' E 027°10'816.3
2018-Jun-11 22:30N 60°06' E 027°24'815.5
2018-Jun-11 22:00N 60°10' E 027°37'715.1
2018-Jun-11 21:31N 60°11' E 027°52'816.0
2018-Jun-11 21:00N 60°09' E 028°07'815.7
2018-Jun-11 20:31N 60°06' E 028°21'815.5
2018-Jun-11 20:00N 60°03' E 028°36'816.4
2018-Jun-11 19:30N 60°03' E 028°52'916.2
2018-Jun-11 18:56N 60°02' E 029°11'1812.9
2018-Jun-11 17:33N 59°59' E 029°46'110.0
2018-Jun-11 17:30N 59°58' E 029°46'5 9.8
2018-Jun-11 16:57N 59°56' E 029°56'4 9.3
2018-Jun-11 16:29N 59°56' E 030°05'3 5.8
2018-Jun-11 15:53N 59°57' E 030°12'0 0.0
2018-Jun-11 15:14N 59°57' E 030°12'0 0.0
2018-Jun-11 14:57N 59°57' E 030°12'0 0.0
2018-Jun-11 14:29N 59°57' E 030°12'0 0.0
2018-Jun-11 13:53N 59°57' E 030°12'0 0.0
2018-Jun-11 13:29N 59°57' E 030°12'0 0.0
2018-Jun-11 12:59N 59°57' E 030°12'0 0.0
2018-Jun-11 12:29N 59°57' E 030°12'0 0.0
2018-Jun-11 11:38N 59°57' E 030°12'0 0.0
2018-Jun-11 11:20N 59°57' E 030°12'0 0.0
2018-Jun-11 10:53N 59°57' E 030°12'0 0.0
2018-Jun-11 10:29N 59°57' E 030°12'0 0.0
2018-Jun-11 09:59N 59°57' E 030°12'0 0.0
2018-Jun-11 09:05N 59°57' E 030°12'0 0.0
2018-Jun-11 08:53N 59°57' E 030°12'0 0.0
2018-Jun-11 08:23N 59°57' E 030°12'0 0.0
2018-Jun-11 08:00N 59°57' E 030°12'0 0.0
2018-Jun-11 07:18N 59°57' E 030°12'0 0.0
2018-Jun-11 06:59N 59°57' E 030°12'0 0.0
2018-Jun-11 06:23N 59°57' E 030°12'0 0.0
2018-Jun-11 05:57N 59°57' E 030°12'0 0.0
2018-Jun-11 05:23N 59°57' E 030°12'0 0.0
2018-Jun-11 04:59N 59°57' E 030°12'0 0.0
2018-Jun-11 04:29N 59°57' E 030°12'0 0.0
2018-Jun-11 03:48N 59°57' E 030°12'0 0.0
2018-Jun-11 03:30N 59°57' E 030°12'0 0.0
2018-Jun-11 02:53N 59°57' E 030°12'0 0.0
2018-Jun-11 02:29N 59°57' E 030°12'0 0.0
2018-Jun-10 23:59N 59°57' E 030°12'0 0.0
2018-Jun-10 22:36N 59°57' E 030°12'0 0.0
2018-Jun-10 22:11N 59°57' E 030°12'0 0.0
2018-Jun-10 21:59N 59°57' E 030°12'0 0.0
2018-Jun-10 18:18N 59°57' E 030°12'0 0.0
2018-Jun-10 17:55N 59°57' E 030°12'0 0.0
2018-Jun-10 13:48N 59°57' E 030°12'0 0.0
2018-Jun-10 09:42N 59°57' E 030°12'0 0.0
2018-Jun-10 09:11N 59°57' E 030°12'0 0.0
2018-Jun-10 09:00N 59°57' E 030°12'0 0.0
2018-Jun-10 06:45N 59°57' E 030°12'0 0.0
2018-Jun-10 06:22N 59°57' E 030°12'0 0.0
2018-Jun-10 05:52N 59°57' E 030°12'0 0.0
2018-Jun-10 05:29N 59°57' E 030°12'0 0.0
2018-Jun-10 04:40N 59°57' E 030°12'0 0.0
2018-Jun-10 04:23N 59°57' E 030°12'0 0.3
2018-Jun-10 03:59N 59°57' E 030°11'2 4.3
2018-Jun-10 03:28N 59°57' E 030°07'4 9.4
2018-Jun-10 03:01N 59°56' E 029°59'5 9.6
2018-Jun-10 02:28N 59°57' E 029°49'1111.0
2018-Jun-10 01:28N 60°01' E 029°28'814.1
2018-Jun-10 00:55N 60°02' E 029°13'712.8
2018-Jun-10 00:24N 60°02' E 028°60'511.7
2018-Jun-09 23:58N 60°02' E 028°49'613.1
2018-Jun-09 23:30N 60°02' E 028°37'714.7
2018-Jun-09 23:00N 60°04' E 028°23'714.9
2018-Jun-09 22:30N 60°08' E 028°11'815.1
2018-Jun-09 22:00N 60°10' E 027°56'713.7
2018-Jun-09 21:30N 60°09' E 027°42'815.0
2018-Jun-09 21:00N 60°05' E 027°30'815.1
2018-Jun-09 20:30N 60°01' E 027°16'714.9
2018-Jun-09 20:00N 59°58' E 027°04'815.3
2018-Jun-09 19:30N 59°59' E 026°49'816.1
2018-Jun-09 19:00N 59°59' E 026°33'816.4
2018-Jun-09 18:30N 59°56' E 026°17'816.4
2018-Jun-09 18:00N 59°54' E 026°01'816.6
2018-Jun-09 17:30N 59°52' E 025°45'816.5
2018-Jun-09 17:00N 59°50' E 025°29'816.5
2018-Jun-09 16:30N 59°48' E 025°13'816.3
2018-Jun-09 16:00N 59°45' E 024°58'1413.7
2018-Jun-09 15:00N 59°34' E 024°43'612.8
2018-Jun-09 14:30N 59°28' E 024°46'1 1.2
2018-Jun-09 14:00N 59°27' E 024°46'0 0.0
2018-Jun-09 13:30N 59°27' E 024°46'0 0.0
2018-Jun-09 12:57N 59°27' E 024°46'0 0.0
2018-Jun-09 12:30N 59°27' E 024°46'0 0.0
2018-Jun-09 12:00N 59°27' E 024°46'0 0.0
2018-Jun-09 11:30N 59°27' E 024°46'0 0.0
2018-Jun-09 11:00N 59°27' E 024°46'0 0.0
2018-Jun-09 10:30N 59°27' E 024°46'0 0.0
2018-Jun-09 10:00N 59°27' E 024°46'0 0.0
2018-Jun-09 09:30N 59°27' E 024°46'0 0.0
2018-Jun-09 09:00N 59°27' E 024°46'0 0.0
2018-Jun-09 08:30N 59°27' E 024°46'1 1.9
2018-Jun-09 08:00N 59°28' E 024°45'510.6
2018-Jun-09 07:30N 59°30' E 024°36'611.4
2018-Jun-09 07:00N 59°30' E 024°24'611.8
2018-Jun-09 06:31N 59°29' E 024°13'714.1
2018-Jun-09 06:01N 59°29' E 023°59'714.3
2018-Jun-09 05:30N 59°28' E 023°45'714.1
2018-Jun-09 05:00N 59°28' E 023°31'714.1
2018-Jun-09 04:30N 59°27' E 023°17'714.2
2018-Jun-09 04:00N 59°27' E 023°03'814.1
2018-Jun-09 03:25N 59°26' E 022°47'614.3
2018-Jun-09 03:01N 59°24' E 022°36'714.5
2018-Jun-09 02:30N 59°19' E 022°25'714.4
2018-Jun-09 02:00N 59°15' E 022°14'814.4
2018-Jun-09 01:27N 59°10' E 022°02'714.5
2018-Jun-09 01:00N 59°06' E 021°51'814.4
2018-Jun-09 00:29N 59°01' E 021°40'714.7
2018-Jun-09 00:00N 58°56' E 021°32'  
Track history (hours):
 
Tides and Currents Weather Stations Pressure Air Temp Water Temp Dewpoint Dewpoint Depression Visibility Wind Speed Wind Dir Waves Ship Positions

Marco Polo

Operator: Orient Lines

Last reported at 2018-Jun-18 18:59 UTC. Time now 2018-Jun-19 20:03 UTC.
Position N 57°39' W 001°41'.

Type: Ship. MMSI: 308691456.

Date/timePositionNaut miles runAvg speedWind from/ knotsBaromVisibWave heightAir tempDewpointWater temp
2018-Jun-18 18:59N 57°39' W 001°41'5 9.7
2018-Jun-18 18:30N 57°35' W 001°39'4 8.9
2018-Jun-18 18:01N 57°30' W 001°37'4 8.6
2018-Jun-18 17:31N 57°26' W 001°34'6 8.6
2018-Jun-18 16:51N 57°21' W 001°32'4 9.1
2018-Jun-18 16:24N 57°17' W 001°30'4 9.0
2018-Jun-18 16:00N 57°13' W 001°28'4 8.9
2018-Jun-18 15:31N 57°09' W 001°25'14612.4
2018-Jun-18 03:49N 54°49' W 000°12'413.8
2018-Jun-18 03:30N 54°45' W 000°10'714.1
2018-Jun-18 03:00N 54°39' W 000°07'714.7
2018-Jun-18 02:30N 54°32' W 000°03'715.0
2018-Jun-18 02:00N 54°24' E 000°00'815.2
2018-Jun-18 01:30N 54°17' E 000°04'815.7
2018-Jun-18 01:00N 54°10' E 000°08'815.6
2018-Jun-18 00:30N 54°02' E 000°12'815.5
2018-Jun-18 00:00N 53°55' E 000°17'1613.4
2018-Jun-17 22:48N 53°39' E 000°23'515.2
2018-Jun-17 22:28N 53°35' E 000°18'911.2
2018-Jun-17 21:42N 53°35' E 000°04'314.1
2018-Jun-17 21:30N 53°35' W 000°01'612.4
2018-Jun-17 21:00N 53°38' W 000°11'510.3
2018-Jun-17 20:30N 53°43' W 000°14'2 4.4
2018-Jun-17 20:00N 53°44' W 000°16'0 0.2
2018-Jun-17 19:30N 53°45' W 000°16'0 0.4
2018-Jun-17 19:00N 53°45' W 000°16'0 0.0
2018-Jun-17 18:27N 53°45' W 000°16'0 0.0
2018-Jun-17 18:00N 53°45' W 000°16'0 0.0
2018-Jun-17 17:30N 53°45' W 000°16'0 0.0
2018-Jun-17 17:00N 53°45' W 000°16'0 0.0
2018-Jun-17 16:30N 53°45' W 000°16'0 0.0
2018-Jun-17 16:00N 53°45' W 000°16'0 0.0
2018-Jun-17 15:27N 53°45' W 000°16'0 0.0
2018-Jun-17 15:00N 53°45' W 000°16'0 0.0
2018-Jun-17 14:30N 53°45' W 000°16'0 0.0
2018-Jun-17 14:00N 53°45' W 000°16'0 0.0
2018-Jun-17 13:30N 53°45' W 000°16'0 0.0
2018-Jun-17 13:00N 53°45' W 000°16'0 0.0
2018-Jun-17 12:30N 53°45' W 000°16'0 0.0
2018-Jun-17 12:00N 53°45' W 000°16'0 0.0
2018-Jun-17 11:30N 53°45' W 000°16'0 0.0
2018-Jun-17 11:00N 53°45' W 000°16'0 0.0
2018-Jun-17 10:30N 53°45' W 000°16'0 0.0
2018-Jun-17 10:00N 53°45' W 000°16'0 0.0
2018-Jun-17 09:30N 53°45' W 000°16'0 0.0
2018-Jun-17 09:00N 53°45' W 000°16'0 0.0
2018-Jun-17 08:30N 53°45' W 000°16'0 0.2
2018-Jun-17 08:00N 53°45' W 000°16'0 0.4
2018-Jun-17 07:31N 53°44' W 000°16'1 2.7
2018-Jun-17 07:00N 53°43' W 000°15'5 9.4
2018-Jun-17 06:30N 53°39' W 000°12'510.5
2018-Jun-17 06:00N 53°37' W 000°03'1012.5
2018-Jun-17 05:13N 53°33' E 000°11'3512.7
2018-Jun-17 02:27N 53°23' E 001°08'512.1
2018-Jun-17 02:00N 53°18' E 001°12'611.9
2018-Jun-17 01:30N 53°13' E 001°17'611.1
2018-Jun-17 01:00N 53°08' E 001°23'510.5
2018-Jun-17 00:31N 53°04' E 001°27'5 9.7
2018-Jun-17 00:01N 52°60' E 001°31'4 8.8
2018-Jun-16 23:30N 52°56' E 001°36'4 8.1
2018-Jun-16 23:01N 52°54' E 001°41'4 7.6
2018-Jun-16 22:30N 52°51' E 001°46'4 8.0
2018-Jun-16 22:01N 52°49' E 001°51'4 7.6
2018-Jun-16 21:30N 52°47' E 001°57'4 7.3
2018-Jun-16 21:00N 52°44' E 001°60'4 7.6
2018-Jun-16 20:30N 52°40' E 002°01'4 7.8
2018-Jun-16 20:00N 52°36' E 002°02'5 9.2
2018-Jun-16 19:30N 52°32' E 002°00'910.3
2018-Jun-16 18:38N 52°23' E 001°57'210.9
2018-Jun-16 18:29N 52°21' E 001°56'611.3
2018-Jun-16 18:00N 52°16' E 001°53'611.4
2018-Jun-16 17:31N 52°11' E 001°50'612.0
2018-Jun-16 17:01N 52°06' E 001°46'612.8
2018-Jun-16 16:31N 52°02' E 001°38'815.0
2018-Jun-16 16:00N 51°56' E 001°29'612.8
2018-Jun-16 15:30N 51°56' E 001°19'2 4.9
2018-Jun-16 15:00N 51°57' E 001°15'0 0.0
2018-Jun-16 14:29N 51°57' E 001°15'0 0.0
2018-Jun-16 13:59N 51°57' E 001°15'0 0.0
2018-Jun-16 13:29N 51°57' E 001°15'0 0.0
2018-Jun-16 12:59N 51°57' E 001°15'0 0.0
2018-Jun-16 12:29N 51°57' E 001°15'0 0.0
2018-Jun-16 11:59N 51°57' E 001°15'0 0.0
2018-Jun-16 11:29N 51°57' E 001°15'0 0.0
2018-Jun-16 10:59N 51°57' E 001°15'0 0.0
2018-Jun-16 10:29N 51°57' E 001°15'0 0.0
2018-Jun-16 09:59N 51°57' E 001°15'0 0.0
2018-Jun-16 09:29N 51°57' E 001°15'0 0.0
2018-Jun-16 08:59N 51°57' E 001°15'0 0.0
2018-Jun-16 08:29N 51°57' E 001°15'1 2.9
2018-Jun-16 08:00N 51°57' E 001°18'5 9.7
2018-Jun-16 07:30N 51°56' E 001°25'5 9.4
2018-Jun-16 07:00N 51°57' E 001°33'5 9.6
2018-Jun-16 06:31N 51°52' E 001°35'713.2
2018-Jun-16 06:01N 51°55' E 001°44'714.6
2018-Jun-16 05:31N 52°01' E 001°51'714.5
2018-Jun-16 05:00N 52°07' E 001°58'714.7
2018-Jun-16 04:30N 52°13' E 002°05'814.5
2018-Jun-16 03:59N 52°19' E 002°12'814.5
2018-Jun-16 03:26N 52°25' E 002°20'714.8
2018-Jun-16 02:57N 52°31' E 002°27'715.3
2018-Jun-16 02:31N 52°37' E 002°34'815.8
2018-Jun-16 02:00N 52°42' E 002°43'816.0
2018-Jun-16 01:30N 52°49' E 002°49'816.8
2018-Jun-16 01:00N 52°56' E 002°57'1117.0
2018-Jun-16 00:20N 53°05' E 003°08'617.2
2018-Jun-16 00:00N 53°10' E 003°14'917.1
2018-Jun-15 23:30N 53°16' E 003°24'917.3
2018-Jun-15 23:01N 53°24' E 003°29'917.1
2018-Jun-15 22:30N 53°32' E 003°33'816.9
2018-Jun-15 22:00N 53°40' E 003°38'1015.8
2018-Jun-15 21:24N 53°47' E 003°50'33814.8
2018-Jun-14 22:31N 57°41' E 011°04'015.5
2018-Jun-14 22:30N 57°41' E 011°05'815.8
2018-Jun-14 21:58N 57°34' E 011°15'716.1
2018-Jun-14 21:30N 57°29' E 011°25'815.6
2018-Jun-14 21:00N 57°22' E 011°31'12414.4
2018-Jun-14 12:21N 55°19' E 011°03'413.1
2018-Jun-14 12:00N 55°15' E 011°06'714.0
2018-Jun-14 11:29N 55°08' E 011°03'715.1
2018-Jun-14 11:01N 55°00' E 011°02'714.7
2018-Jun-14 10:30N 54°55' E 010°54'815.0
2018-Jun-14 10:00N 54°47' E 010°53'713.8
2018-Jun-14 09:31N 54°41' E 010°57'815.7
2018-Jun-14 09:00N 54°37' E 011°09'714.9
2018-Jun-14 08:31N 54°34' E 011°21'815.2
2018-Jun-14 08:01N 54°30' E 011°32'815.6
2018-Jun-14 07:30N 54°27' E 011°45'714.7
2018-Jun-14 07:00N 54°26' E 011°57'4614.1
2018-Jun-14 03:44N 54°52' E 013°03'516.1
2018-Jun-14 03:25N 54°54' E 013°11'2916.3
2018-Jun-14 01:36N 55°04' E 013°60'215.4
2018-Jun-14 01:26N 55°05' E 014°04'715.8
2018-Jun-14 01:00N 55°10' E 014°12'816.3
2018-Jun-14 00:30N 55°16' E 014°21'816.5
2018-Jun-14 00:00N 55°23' E 014°30'816.3
2018-Jun-13 23:30N 55°28' E 014°41'816.2
2018-Jun-13 22:59N 55°33' E 014°53'816.2
2018-Jun-13 22:30N 55°36' E 015°05'816.2
2018-Jun-13 22:00N 55°40' E 015°18'816.2
2018-Jun-13 21:30N 55°44' E 015°31'174 9.9
2018-Jun-13 03:54N 58°01' E 018°48'2814.8
2018-Jun-13 02:00N 58°14' E 019°35'8316.1
2018-Jun-12 20:50N 59°09' E 021°36'717.0
2018-Jun-12 20:24N 59°14' E 021°46'717.1
2018-Jun-12 20:00N 59°18' E 021°57'816.8
2018-Jun-12 19:30N 59°23' E 022°10'816.8
2018-Jun-12 19:00N 59°28' E 022°23'816.3
2018-Jun-12 18:30N 59°31' E 022°39'1216.3
2018-Jun-12 17:47N 59°34' E 023°01'616.2
2018-Jun-12 17:25N 59°35' E 023°13'716.3
2018-Jun-12 17:00N 59°37' E 023°25'816.2
2018-Jun-12 16:30N 59°39' E 023°41'816.7
2018-Jun-12 16:00N 59°43' E 023°56'916.4
2018-Jun-12 15:29N 59°46' E 024°12'817.1
2018-Jun-12 15:01N 59°48' E 024°27'815.2
2018-Jun-12 14:30N 59°52' E 024°40'816.3
2018-Jun-12 14:00N 59°58' E 024°51'714.3
2018-Jun-12 13:31N 60°04' E 024°58'610.9
2018-Jun-12 13:00N 60°10' E 024°59'1 1.0
2018-Jun-12 12:29N 60°10' E 024°58'0 0.0
2018-Jun-12 11:59N 60°10' E 024°58'0 0.0
2018-Jun-12 11:29N 60°10' E 024°58'0 0.0
2018-Jun-12 10:59N 60°10' E 024°58'0 0.0
2018-Jun-12 10:29N 60°10' E 024°58'0 0.0
2018-Jun-12 09:59N 60°10' E 024°58'0 0.0
2018-Jun-12 09:29N 60°10' E 024°58'0 0.0
2018-Jun-12 08:59N 60°10' E 024°58'0 0.0
2018-Jun-12 08:29N 60°10' E 024°58'0 0.0
2018-Jun-12 07:59N 60°10' E 024°58'0 0.0
2018-Jun-12 07:29N 60°10' E 024°58'0 0.0
2018-Jun-12 06:56N 60°10' E 024°58'0 0.0
2018-Jun-12 06:29N 60°10' E 024°58'0 0.0
2018-Jun-12 05:59N 60°10' E 024°58'0 0.0
2018-Jun-12 05:29N 60°10' E 024°58'0 0.0
2018-Jun-12 04:59N 60°10' E 024°58'0 0.2
2018-Jun-12 04:30N 60°10' E 024°59'1 2.6
2018-Jun-12 04:01N 60°09' E 024°60'612.5
2018-Jun-12 03:30N 60°03' E 024°58'612.1
2018-Jun-12 03:01N 59°58' E 025°05'816.3
2018-Jun-12 02:30N 59°57' E 025°21'3716.4
2018-Jun-12 00:14N 60°02' E 026°35'311.1
2018-Jun-12 00:00N 60°01' E 026°40'714.9
2018-Jun-11 23:31N 60°00' E 026°55'714.9
2018-Jun-11 23:00N 60°02' E 027°10'816.3
2018-Jun-11 22:30N 60°06' E 027°24'815.5
2018-Jun-11 22:00N 60°10' E 027°37'715.1
2018-Jun-11 21:31N 60°11' E 027°52'816.0
2018-Jun-11 21:00N 60°09' E 028°07'815.7
2018-Jun-11 20:31N 60°06' E 028°21'815.5
2018-Jun-11 20:00N 60°03' E 028°36'816.4
2018-Jun-11 19:30N 60°03' E 028°52'916.2
2018-Jun-11 18:56N 60°02' E 029°11'1812.9
2018-Jun-11 17:33N 59°59' E 029°46'110.0
2018-Jun-11 17:30N 59°58' E 029°46'5 9.8
2018-Jun-11 16:57N 59°56' E 029°56'4 9.3
2018-Jun-11 16:29N 59°56' E 030°05'3 5.8
2018-Jun-11 15:53N 59°57' E 030°12'0 0.0
2018-Jun-11 15:14N 59°57' E 030°12'0 0.0
2018-Jun-11 14:57N 59°57' E 030°12'0 0.0
2018-Jun-11 14:29N 59°57' E 030°12'0 0.0
2018-Jun-11 13:53N 59°57' E 030°12'0 0.0
2018-Jun-11 13:29N 59°57' E 030°12'0 0.0
2018-Jun-11 12:59N 59°57' E 030°12'0 0.0
2018-Jun-11 12:29N 59°57' E 030°12'0 0.0
2018-Jun-11 11:38N 59°57' E 030°12'0 0.0
2018-Jun-11 11:20N 59°57' E 030°12'0 0.0
2018-Jun-11 10:53N 59°57' E 030°12'0 0.0
2018-Jun-11 10:29N 59°57' E 030°12'0 0.0
2018-Jun-11 09:59N 59°57' E 030°12'0 0.0
2018-Jun-11 09:05N 59°57' E 030°12'0 0.0
2018-Jun-11 08:53N 59°57' E 030°12'0 0.0
2018-Jun-11 08:23N 59°57' E 030°12'0 0.0
2018-Jun-11 08:00N 59°57' E 030°12'0 0.0
2018-Jun-11 07:18N 59°57' E 030°12'0 0.0
2018-Jun-11 06:59N 59°57' E 030°12'0 0.0
2018-Jun-11 06:23N 59°57' E 030°12'0 0.0
2018-Jun-11 05:57N 59°57' E 030°12'0 0.0
2018-Jun-11 05:23N 59°57' E 030°12'0 0.0
2018-Jun-11 04:59N 59°57' E 030°12'0 0.0
2018-Jun-11 04:29N 59°57' E 030°12'0 0.0
2018-Jun-11 03:48N 59°57' E 030°12'0 0.0
2018-Jun-11 03:30N 59°57' E 030°12'0 0.0
2018-Jun-11 02:53N 59°57' E 030°12'0 0.0
2018-Jun-11 02:29N 59°57' E 030°12'0 0.0
2018-Jun-10 23:59N 59°57' E 030°12'0 0.0
2018-Jun-10 22:36N 59°57' E 030°12'0 0.0
2018-Jun-10 22:11N 59°57' E 030°12'0 0.0
2018-Jun-10 21:59N 59°57' E 030°12'0 0.0
2018-Jun-10 18:18N 59°57' E 030°12'0 0.0
2018-Jun-10 17:55N 59°57' E 030°12'0 0.0
2018-Jun-10 13:48N 59°57' E 030°12'0 0.0
2018-Jun-10 09:42N 59°57' E 030°12'0 0.0
2018-Jun-10 09:11N 59°57' E 030°12'0 0.0
2018-Jun-10 09:00N 59°57' E 030°12'0 0.0
2018-Jun-10 06:45N 59°57' E 030°12'0 0.0
2018-Jun-10 06:22N 59°57' E 030°12'0 0.0
2018-Jun-10 05:52N 59°57' E 030°12'0 0.0
2018-Jun-10 05:29N 59°57' E 030°12'0 0.0
2018-Jun-10 04:40N 59°57' E 030°12'0 0.0
2018-Jun-10 04:23N 59°57' E 030°12'0 0.3
2018-Jun-10 03:59N 59°57' E 030°11'2 4.3
2018-Jun-10 03:28N 59°57' E 030°07'4 9.4
2018-Jun-10 03:01N 59°56' E 029°59'5 9.6
2018-Jun-10 02:28N 59°57' E 029°49'1111.0
2018-Jun-10 01:28N 60°01' E 029°28'814.1
2018-Jun-10 00:55N 60°02' E 029°13'712.8
2018-Jun-10 00:24N 60°02' E 028°60'511.7
2018-Jun-09 23:58N 60°02' E 028°49'613.1
2018-Jun-09 23:30N 60°02' E 028°37'714.7
2018-Jun-09 23:00N 60°04' E 028°23'714.9
2018-Jun-09 22:30N 60°08' E 028°11'815.1
2018-Jun-09 22:00N 60°10' E 027°56'713.7
2018-Jun-09 21:30N 60°09' E 027°42'815.0
2018-Jun-09 21:00N 60°05' E 027°30'815.1
2018-Jun-09 20:30N 60°01' E 027°16'714.9
2018-Jun-09 20:00N 59°58' E 027°04'815.3
2018-Jun-09 19:30N 59°59' E 026°49'816.1
2018-Jun-09 19:00N 59°59' E 026°33'816.4
2018-Jun-09 18:30N 59°56' E 026°17'816.4
2018-Jun-09 18:00N 59°54' E 026°01'816.6
2018-Jun-09 17:30N 59°52' E 025°45'816.5
2018-Jun-09 17:00N 59°50' E 025°29'816.5
2018-Jun-09 16:30N 59°48' E 025°13'816.3
2018-Jun-09 16:00N 59°45' E 024°58'1413.7
2018-Jun-09 15:00N 59°34' E 024°43'612.8
2018-Jun-09 14:30N 59°28' E 024°46'1 1.2
2018-Jun-09 14:00N 59°27' E 024°46'0 0.0
2018-Jun-09 13:30N 59°27' E 024°46'0 0.0
2018-Jun-09 12:57N 59°27' E 024°46'0 0.0
2018-Jun-09 12:30N 59°27' E 024°46'0 0.0
2018-Jun-09 12:00N 59°27' E 024°46'0 0.0
2018-Jun-09 11:30N 59°27' E 024°46'0 0.0
2018-Jun-09 11:00N 59°27' E 024°46'0 0.0
2018-Jun-09 10:30N 59°27' E 024°46'0 0.0
2018-Jun-09 10:00N 59°27' E 024°46'0 0.0
2018-Jun-09 09:30N 59°27' E 024°46'0 0.0
2018-Jun-09 09:00N 59°27' E 024°46'0 0.0
2018-Jun-09 08:30N 59°27' E 024°46'1 1.9
2018-Jun-09 08:00N 59°28' E 024°45'510.6
2018-Jun-09 07:30N 59°30' E 024°36'611.4
2018-Jun-09 07:00N 59°30' E 024°24'611.8
2018-Jun-09 06:31N 59°29' E 024°13'714.1
2018-Jun-09 06:01N 59°29' E 023°59'714.3
2018-Jun-09 05:30N 59°28' E 023°45'714.1
2018-Jun-09 05:00N 59°28' E 023°31'714.1
2018-Jun-09 04:30N 59°27' E 023°17'714.2
2018-Jun-09 04:00N 59°27' E 023°03'814.1
2018-Jun-09 03:25N 59°26' E 022°47'614.3
2018-Jun-09 03:01N 59°24' E 022°36'714.5
2018-Jun-09 02:30N 59°19' E 022°25'714.4
2018-Jun-09 02:00N 59°15' E 022°14'814.4
2018-Jun-09 01:27N 59°10' E 022°02'714.5
2018-Jun-09 01:00N 59°06' E 021°51'814.4
2018-Jun-09 00:29N 59°01' E 021°40'714.7
2018-Jun-09 00:00N 58°56' E 021°32'  

Dump ship's entire track history